Time;durP1;ratioP1;P1;durP2;ratioP2;P2;SDS_P1;SDS_P2;PMS_P1;PMS_P2;Temp;Humidity;BMP_temperature;BMP_pressure;BME280_temperature;BME280_humidity;BME280_pressure;Samples;Min_cycle;Max_cycle;Signal;HPM_P1;HPM_P2
2022/04/28 00:00:31;;;;;;;10.87;7.83;;;;;;;4.96;100.00;97267.84;5035464;28;21020;-76
2022/04/28 00:02:58;;;;;;;7.00;6.33;;;;;;;4.88;100.00;97276.25;5035605;28;20427;-76
2022/04/28 00:05:25;;;;;;;6.30;5.70;;;;;;;4.87;100.00;97289.63;5035623;28;20517;-76
2022/04/28 00:07:52;;;;;;;7.10;6.40;;;;;;;4.85;100.00;97284.66;5035449;28;20816;-76
2022/04/28 00:10:19;;;;;;;12.00;7.00;;;;;;;5.03;100.00;97289.31;5053011;28;20546;-76
2022/04/28 00:12:46;;;;;;;8.37;7.50;;;;;;;4.84;100.00;97290.16;5034972;28;20450;-76
2022/04/28 00:15:13;;;;;;;7.53;6.90;;;;;;;4.72;100.00;97282.56;5035040;28;20447;-76
2022/04/28 00:17:40;;;;;;;7.63;6.83;;;;;;;4.84;100.00;97287.53;5035050;28;20519;-76
2022/04/28 00:20:08;;;;;;;6.60;5.90;;;;;;;4.90;100.00;97281.22;5042702;28;20574;-76
2022/04/28 00:22:35;;;;;;;5.67;5.17;;;;;;;4.68;100.00;97258.75;5034812;28;20440;-75
2022/04/28 00:25:02;;;;;;;5.97;5.47;;;;;;;4.60;100.00;97272.38;5034632;28;20468;-75
2022/04/28 00:27:29;;;;;;;6.13;5.53;;;;;;;4.47;100.00;97272.91;5018349;28;21043;-75
2022/04/28 00:29:56;;;;;;;7.13;6.43;;;;;;;4.72;100.00;97262.41;5034762;28;20995;-75
2022/04/28 00:32:23;;;;;;;9.63;6.97;;;;;;;4.79;100.00;97279.66;5034850;28;20506;-76
2022/04/28 00:34:50;;;;;;;9.90;7.13;;;;;;;4.80;100.00;97276.78;5034847;28;20431;-75
2022/04/28 00:37:18;;;;;;;8.37;6.23;;;;;;;4.93;100.00;97291.16;5051417;28;20431;-75
2022/04/28 00:39:46;;;;;;;7.07;6.47;;;;;;;4.69;100.00;97255.09;5034444;28;20461;-76
2022/04/28 00:42:15;;;;;;;6.50;5.90;;;;;;;4.81;100.00;97299.34;5034903;28;20435;-76
2022/04/28 00:44:42;;;;;;;6.03;5.53;;;;;;;4.67;100.00;97296.47;5034591;28;20439;-76
2022/04/28 00:47:10;;;;;;;5.67;5.07;;;;;;;4.44;100.00;97263.75;5031578;28;20459;-76
2022/04/28 00:52:24;;;;;;;5.13;4.67;;;;;;;4.36;100.00;97279.19;5036081;28;20443;-76
2022/04/28 00:54:53;;;;;;;5.20;4.73;;;;;;;4.49;100.00;97293.59;5018226;28;20460;-75
2022/04/28 00:57:20;;;;;;;6.20;5.13;;;;;;;4.65;100.00;97290.69;5034683;28;20431;-75
2022/04/28 00:59:48;;;;;;;5.97;5.43;;;;;;;4.67;100.00;97296.47;5034359;28;20634;-75
2022/04/28 01:02:18;;;;;;;5.83;5.33;;;;;;;4.56;100.00;97294.91;5034458;28;20844;-75
2022/04/28 01:04:47;;;;;;;5.43;4.83;;;;;;;4.70;100.00;97300.41;5033851;28;20442;-75
2022/04/28 01:07:16;;;;;;;5.47;4.97;;;;;;;4.57;100.00;97266.88;5034293;28;20463;-75
2022/04/28 01:09:43;;;;;;;5.27;4.80;;;;;;;4.32;100.00;97271.09;5017828;28;20835;-75
2022/04/28 01:12:15;;;;;;;7.30;6.00;;;;;;;4.39;100.00;97297.78;5033975;28;20458;-75
2022/04/28 01:14:47;;;;;;;7.70;6.90;;;;;;;4.15;100.00;97271.34;5050764;28;20502;-75
2022/04/28 01:17:15;;;;;;;7.47;6.07;;;;;;;3.99;100.00;97297.75;5052012;28;20447;-75
2022/04/28 01:19:47;;;;;;;9.83;7.37;;;;;;;3.76;100.00;97280.72;5002870;28;20475;-75
2022/04/28 01:22:14;;;;;;;5.37;4.87;;;;;;;3.66;100.00;97281.47;5032977;28;20505;-75
2022/04/28 01:24:40;;;;;;;8.23;6.10;;;;;;;3.84;100.00;97267.13;5033253;28;20435;-75
2022/04/28 01:27:09;;;;;;;6.03;5.43;;;;;;;3.92;100.00;97279.69;5037048;28;20471;-75
2022/04/28 01:29:35;;;;;;;9.07;5.63;;;;;;;3.96;100.00;97282.56;5033298;28;20444;-76
2022/04/28 01:32:02;;;;;;;6.77;6.00;;;;;;;3.76;100.00;97268.44;5033005;28;20521;-75
2022/04/28 01:34:35;;;;;;;6.90;5.70;;;;;;;3.65;100.00;97263.44;5033086;28;20451;-75
2022/04/28 01:37:02;;;;;;;5.70;5.20;;;;;;;3.66;100.00;97299.00;5033589;28;20427;-75
2022/04/28 01:39:29;;;;;;;6.20;5.60;;;;;;;3.58;100.00;97291.63;5035795;28;20455;-75
2022/04/28 01:41:56;;;;;;;6.90;6.20;;;;;;;3.62;100.00;97262.13;5043059;28;20450;-75
2022/04/28 01:44:23;;;;;;;6.83;6.23;;;;;;;3.44;100.00;97270.41;5054485;28;20452;-75
2022/04/28 01:46:50;;;;;;;7.17;6.33;;;;;;;3.25;100.00;97265.66;5045237;28;21055;-75
2022/04/28 01:49:45;;;;;;;7.37;6.67;;;;;;;2.80;100.00;97208.75;5033301;28;20466;-75
2022/04/28 01:55:34;;;;;;;7.20;6.50;;;;;;;2.77;100.00;97258.88;5025756;28;20443;-75
2022/04/28 01:58:13;;;;;;;9.77;6.27;;;;;;;3.39;100.00;97297.34;5039212;28;20794;-75
2022/04/28 02:01:12;;;;;;;6.87;5.40;;;;;;;3.41;100.00;97284.78;5021442;28;20463;-75
2022/04/28 02:03:39;;;;;;;5.90;5.40;;;;;;;3.68;100.00;97297.69;5038487;28;20446;-75
2022/04/28 02:06:05;;;;;;;5.53;5.03;;;;;;;3.60;100.00;97269.41;5055447;28;20486;-76
2022/04/28 02:08:32;;;;;;;5.87;5.33;;;;;;;3.70;100.00;97300.81;5037373;28;20443;-75
2022/04/28 02:11:00;;;;;;;6.60;6.07;;;;;;;3.37;100.00;97281.13;5051550;28;20443;-75
2022/04/28 02:13:52;;;;;;;6.13;5.53;;;;;;;3.31;100.00;97257.81;5021492;28;20443;-75
2022/04/28 02:16:45;;;;;;;6.77;6.13;;;;;;;3.36;100.00;97297.84;5037286;28;20443;-75
2022/04/28 02:19:22;;;;;;;9.77;6.55;;;;;;;3.48;100.00;97300.25;4999342;28;1076775;-75
2022/04/28 02:21:49;;;;;;;5.90;5.30;;;;;;;3.29;100.00;97276.38;5045936;28;20223;-75
2022/04/28 02:24:16;;;;;;;5.97;5.33;;;;;;;3.45;100.00;97308.56;5037448;28;20431;-75
2022/04/28 02:26:44;;;;;;;5.47;4.97;;;;;;;2.93;100.00;97255.31;5037625;28;20890;-75
2022/04/28 02:29:10;;;;;;;6.20;5.67;;;;;;;2.90;100.00;97284.53;5053806;28;20529;-75
2022/04/28 02:31:39;;;;;;;6.30;5.70;;;;;;;2.89;100.00;97298.66;5037216;28;20454;-75
2022/04/28 02:34:06;;;;;;;7.80;5.20;;;;;;;2.82;100.00;97300.72;5037302;28;20869;-75
2022/04/28 02:36:36;;;;;;;5.50;5.00;;;;;;;2.76;100.00;97291.25;5043041;28;20427;-75
2022/04/28 02:39:04;;;;;;;5.93;5.40;;;;;;;2.33;100.00;97238.25;5021063;28;20451;-75
2022/04/28 02:41:32;;;;;;;5.80;5.10;;;;;;;2.48;100.00;97252.44;5036998;28;20447;-75
2022/04/28 02:43:59;;;;;;;6.07;5.57;;;;;;;2.30;100.00;97254.41;5037218;28;20505;-75
2022/04/28 02:46:29;;;;;;;6.80;6.20;;;;;;;2.79;100.00;97305.63;5036695;28;21083;-75
2022/04/28 02:49:00;;;;;;;6.60;6.00;;;;;;;2.70;100.00;97300.09;5037020;28;20439;-75
2022/04/28 02:51:32;;;;;;;9.27;5.90;;;;;;;2.63;100.00;97279.41;5036856;28;20444;-75
2022/04/28 02:53:59;;;;;;;6.27;5.67;;;;;;;2.66;100.00;97281.53;5036907;28;20446;-74
2022/04/28 02:56:25;;;;;;;6.13;5.60;;;;;;;2.56;100.00;97304.19;5036864;28;20435;-75
2022/04/28 02:58:53;;;;;;;5.40;4.93;;;;;;;2.25;100.00;97259.56;5036881;28;20434;-74
2022/04/28 03:01:22;;;;;;;8.07;5.20;;;;;;;2.30;100.00;97282.31;5036599;28;20817;-75
2022/04/28 03:03:49;;;;;;;5.43;5.00;;;;;;;2.71;100.00;97311.34;5020780;28;20493;-75
2022/04/28 03:11:49;;;;;;;7.70;5.50;;;;;;;2.38;100.00;97310.56;5053293;28;20431;-75
2022/04/28 03:14:17;;;;;;;5.70;5.20;;;;;;;2.08;100.00;97311.09;5036396;28;20451;-75
2022/04/28 03:16:44;;;;;;;6.20;5.60;;;;;;;1.97;100.00;97312.81;5036545;28;20431;-74
2022/04/28 03:19:12;;;;;;;6.70;5.20;;;;;;;2.05;100.00;97296.72;5036242;28;20471;-75
2022/04/28 03:21:39;;;;;;;6.10;5.53;;;;;;;2.07;100.00;97279.00;5036534;28;20446;-75
2022/04/28 03:24:07;;;;;;;5.97;5.37;;;;;;;1.80;100.00;97287.88;5036271;28;20438;-75
2022/04/28 03:26:33;;;;;;;6.67;4.83;;;;;;;1.88;100.00;97293.44;5036277;28;21154;-75
2022/04/28 03:29:00;;;;;;;5.33;4.83;;;;;;;1.63;100.00;97277.53;5035606;28;20454;-75
2022/04/28 03:31:27;;;;;;;5.07;4.67;;;;;;;1.98;100.00;97321.41;5036532;28;21161;-75
2022/04/28 03:34:18;;;;;;;5.40;5.00;;;;;;;1.68;100.00;97267.16;5034460;28;20931;-75
2022/04/28 03:36:51;;;;;;;5.70;5.20;;;;;;;1.75;100.00;97323.28;5036242;28;20439;-75
2022/04/28 03:39:29;;;;;;;4.63;4.23;;;;;;;1.93;100.00;97316.16;5037752;28;21015;-75
2022/04/28 03:41:56;;;;;;;5.80;5.27;;;;;;;1.80;100.00;97317.34;5019554;28;20454;-75
2022/04/28 03:44:22;;;;;;;5.53;5.03;;;;;;;2.22;100.00;97329.72;5052711;28;20982;-75
2022/04/28 03:46:49;;;;;;;5.57;5.07;;;;;;;1.94;100.00;97321.13;5035793;28;20463;-75
2022/04/28 03:49:16;;;;;;;4.80;4.30;;;;;;;1.76;100.00;97288.38;5052093;28;20474;-75
2022/04/28 03:51:43;;;;;;;6.30;5.13;;;;;;;2.09;100.00;97307.44;5052221;28;21038;-75
2022/04/28 03:54:10;;;;;;;5.97;5.13;;;;;;;2.12;100.00;97298.34;5052625;28;20493;-75
2022/04/28 03:56:37;;;;;;;5.37;4.83;;;;;;;2.50;100.00;97326.03;5038106;28;20906;-75
2022/04/28 03:59:10;;;;;;;5.00;4.60;;;;;;;2.63;100.00;97334.25;5035813;28;20561;-75
2022/04/28 04:01:52;;;;;;;6.57;5.00;;;;;;;2.44;100.00;97319.22;5009482;28;20447;-75
2022/04/28 04:04:20;;;;;;;7.00;4.90;;;;;;;2.49;100.00;97325.25;5035614;28;20439;-75
2022/04/28 04:06:59;;;;;;;7.07;5.63;;;;;;;2.59;100.00;97319.34;5035489;28;20521;-75
2022/04/28 04:09:35;;;;;;;10.33;6.47;;;;;;;2.71;100.00;97343.44;5036850;28;20451;-75
2022/04/28 04:12:06;;;;;;;7.80;7.10;;;;;;;2.31;100.00;97321.22;5035526;28;20502;-75
2022/04/28 04:14:54;;;;;;;6.43;5.57;;;;;;;2.44;100.00;97338.28;5021426;28;20974;-75
2022/04/28 04:17:23;;;;;;;8.93;6.40;;;;;;;2.73;100.00;97335.38;5035680;28;20449;-77
2022/04/28 04:19:50;;;;;;;9.07;8.27;;;;;;;2.40;100.00;97287.59;5036081;28;20563;-75
2022/04/28 04:22:17;;;;;;;10.40;9.30;;;;;;;2.91;100.00;97340.97;5035141;28;20442;-75
2022/04/28 04:24:44;;;;;;;9.37;8.57;;;;;;;2.57;100.00;97314.38;5035230;28;20434;-75
2022/04/28 04:27:15;;;;;;;9.60;8.80;;;;;;;2.59;100.00;97325.34;5035080;28;20491;-76
2022/04/28 04:32:57;;;;;;;9.03;8.10;;;;;;;2.81;100.00;97330.47;5034959;28;20443;-75
2022/04/28 04:35:25;;;;;;;10.10;6.43;;;;;;;3.10;100.00;97346.59;5035150;28;20446;-75
2022/04/28 04:37:54;;;;;;;7.70;7.00;;;;;;;3.26;100.00;97370.97;5034855;28;20439;-75
2022/04/28 04:40:24;;;;;;;8.27;7.17;;;;;;;2.76;100.00;97334.84;5034045;28;20470;-75
2022/04/28 04:42:51;;;;;;;7.63;6.83;;;;;;;2.42;100.00;97306.44;5018501;28;20447;-75
2022/04/28 04:45:17;;;;;;;6.70;6.10;;;;;;;2.56;100.00;97351.16;5035346;28;20459;-75
2022/04/28 04:48:09;;;;;;;5.97;5.37;;;;;;;2.58;100.00;97329.00;5042361;28;20474;-75
2022/04/28 04:51:02;;;;;;;7.77;6.93;;;;;;;2.94;100.00;97314.38;5038416;28;20463;-75
2022/04/28 04:53:33;;;;;;;9.90;8.93;;;;;;;3.02;100.00;97360.09;5035673;28;20447;-75
2022/04/28 04:56:00;;;;;;;8.93;7.70;;;;;;;2.74;100.00;97376.88;5035352;28;20840;-75
2022/04/28 04:58:27;;;;;;;7.07;6.40;;;;;;;2.77;100.00;97371.16;5036989;28;20475;-77
2022/04/28 05:00:56;;;;;;;8.57;6.90;;;;;;;2.69;100.00;97339.53;5055700;28;20459;-76
2022/04/28 05:03:23;;;;;;;13.03;7.33;;;;;;;2.96;100.00;97374.19;5075605;28;20518;-76
2022/04/28 05:05:59;;;;;;;8.00;7.20;;;;;;;2.93;100.00;97379.88;5040859;28;20455;-80
2022/04/28 05:08:35;;;;;;;7.40;6.70;;;;;;;2.63;100.00;97321.19;5053379;28;20454;-76
2022/04/28 05:11:12;;;;;;;8.13;7.33;;;;;;;3.33;100.00;97392.41;5035249;28;20476;-76
2022/04/28 05:14:08;;;;;;;7.33;6.63;;;;;;;3.23;100.00;97389.78;4997605;28;20524;-76
2022/04/28 05:16:35;;;;;;;7.63;6.93;;;;;;;2.92;100.00;97349.59;5017924;28;20439;-76
2022/04/28 05:19:17;;;;;;;8.63;7.93;;;;;;;3.39;100.00;97403.72;5052321;28;20478;-77
2022/04/28 05:21:50;;;;;;;8.47;7.80;;;;;;;3.36;100.00;97375.47;5035298;28;20426;-76
2022/04/28 05:24:36;;;;;;;9.53;8.20;;;;;;;3.52;100.00;97367.44;5037346;28;20418;-76
2022/04/28 05:27:22;;;;;;;11.20;9.20;;;;;;;3.55;100.00;97380.00;5052576;28;20489;-76
2022/04/28 05:29:50;;;;;;;9.03;8.00;;;;;;;3.80;100.00;97383.75;5034033;28;20554;-76
2022/04/28 05:32:43;;;;;;;9.07;8.17;;;;;;;3.95;100.00;97370.72;5015312;28;20426;-76
2022/04/28 05:35:28;;;;;;;9.23;8.40;;;;;;;4.10;100.00;97375.22;5052121;28;20427;-76
2022/04/28 05:37:56;;;;;;;8.03;7.10;;;;;;;4.28;100.00;97389.66;5017582;28;20678;-76
2022/04/28 05:40:23;;;;;;;8.77;7.93;;;;;;;4.35;100.00;97395.44;5033508;28;21067;-77
2022/04/28 05:45:42;;;;;;;10.27;9.30;;;;;;;4.75;100.00;97386.81;5035593;28;20535;-77
2022/04/28 05:48:18;;;;;;;10.33;9.23;;;;;;;5.04;100.00;97413.28;5035304;28;20505;-76
2022/04/28 05:50:50;;;;;;;10.93;9.80;;;;;;;4.78;100.00;97322.63;5034512;28;20540;-77
2022/04/28 05:53:18;;;;;;;13.00;9.70;;;;;;;5.59;100.00;97408.97;5054800;28;20420;-77
2022/04/28 05:55:51;;;;;;;9.40;8.50;;;;;;;5.59;100.00;97399.28;5035133;28;20438;-77
2022/04/28 05:58:19;;;;;;;10.37;9.10;;;;;;;5.69;100.00;97368.81;5034234;28;20439;-77
2022/04/28 06:01:07;;;;;;;9.20;8.33;;;;;;;5.95;100.00;97396.56;5034235;28;20474;-77
2022/04/28 06:03:36;;;;;;;10.37;9.30;;;;;;;6.22;100.00;97396.16;5018658;28;20447;-76
2022/04/28 06:06:13;;;;;;;10.23;9.20;;;;;;;6.60;100.00;97428.00;5034137;28;20453;-77
2022/04/28 06:08:41;;;;;;;10.30;8.77;;;;;;;6.07;100.00;97309.63;5034473;28;20471;-77
2022/04/28 06:11:08;;;;;;;10.97;9.87;;;;;;;6.66;100.00;97371.69;5034137;28;20975;-77
2022/04/28 06:13:37;;;;;;;9.67;8.27;;;;;;;7.01;100.00;97413.47;5030793;28;20531;-77
2022/04/28 06:16:23;;;;;;;8.60;7.77;;;;;;;7.17;100.00;97394.94;5052307;28;20961;-77
2022/04/28 06:19:13;;;;;;;7.80;7.20;;;;;;;7.72;100.00;97439.09;5034620;28;20518;-77
2022/04/28 06:22:00;;;;;;;7.93;7.23;;;;;;;7.38;100.00;97372.66;5037434;28;20444;-77
2022/04/28 06:24:29;;;;;;;8.50;7.80;;;;;;;7.90;100.00;97413.13;5037531;28;20444;-78
2022/04/28 06:26:56;;;;;;;8.47;7.37;;;;;;;7.90;100.00;97415.75;5042029;28;20492;-77
2022/04/28 06:29:22;;;;;;;8.53;7.63;;;;;;;8.02;100.00;97404.81;5034273;28;20503;-77
2022/04/28 06:31:51;;;;;;;9.27;8.37;;;;;;;8.44;100.00;97414.56;5034534;28;20840;-77
2022/04/28 06:34:36;;;;;;;8.53;7.80;;;;;;;8.78;100.00;97443.31;5041949;28;20922;-77
2022/04/28 06:37:07;;;;;;;7.97;7.27;;;;;;;9.15;100.00;97439.84;5018556;28;20443;-78
2022/04/28 06:39:35;;;;;;;7.37;6.67;;;;;;;9.11;100.00;97425.69;5034403;28;20506;-78
2022/04/28 06:42:03;;;;;;;7.20;6.60;;;;;;;9.28;100.00;97443.59;5035611;28;20449;-77
2022/04/28 06:44:54;;;;;;;8.23;6.90;;;;;;;8.79;100.00;97416.66;5052544;28;20558;-77
2022/04/28 06:47:39;;;;;;;8.17;7.37;;;;;;;9.32;100.00;97432.16;5052138;28;20504;-77
2022/04/28 06:50:45;;;;;;;9.00;8.00;;;;;;;9.79;100.00;97427.66;4999908;28;20460;-77
2022/04/28 06:53:30;;;;;;;7.70;7.00;;;;;;;10.04;100.00;97413.94;4978000;28;20430;-78
2022/04/28 06:56:02;;;;;;;8.10;7.30;;;;;;;10.57;100.00;97460.19;5010945;28;20488;-77
2022/04/28 06:58:33;;;;;;;8.80;8.00;;;;;;;10.52;100.00;97455.78;5021454;28;20436;-77
2022/04/28 07:01:05;;;;;;;7.63;6.90;;;;;;;9.99;100.00;97421.94;5039030;28;20455;-77
2022/04/28 07:03:32;;;;;;;8.40;7.50;;;;;;;9.87;100.00;97432.22;5036843;28;20450;-78
2022/04/28 07:06:01;;;;;;;9.60;7.63;;;;;;;9.95;100.00;97442.13;5037428;28;20498;-78
2022/04/28 07:08:27;;;;;;;13.90;11.17;;;;;;;9.72;100.00;97446.50;5039480;28;20463;-78
2022/04/28 07:10:54;;;;;;;10.80;9.70;;;;;;;9.97;100.00;97465.59;5043929;28;20983;-77
2022/04/28 07:13:21;;;;;;;9.80;9.00;;;;;;;9.57;100.00;97401.91;5037761;28;20535;-78
2022/04/28 07:16:06;;;;;;;8.30;7.50;;;;;;;9.89;100.00;97482.16;5056083;28;20425;-77
2022/04/28 07:19:08;;;;;;;7.63;6.93;;;;;;;9.39;100.00;97445.78;5037485;28;20459;-77
2022/04/28 07:21:37;;;;;;;7.73;7.00;;;;;;;9.62;100.00;97472.34;5037577;28;21005;-77
2022/04/28 07:24:04;;;;;;;7.67;6.97;;;;;;;10.34;100.00;97464.63;5037496;28;20440;-77
2022/04/28 07:26:30;;;;;;;7.07;6.47;;;;;;;10.62;100.00;97484.66;5037014;28;20555;-77
2022/04/28 07:28:57;;;;;;;7.80;7.00;;;;;;;10.20;100.00;97466.47;5039514;28;20882;-77
2022/04/28 07:31:47;;;;;;;7.63;6.93;;;;;;;10.79;100.00;97477.94;5054523;28;20456;-77
2022/04/28 07:34:13;;;;;;;7.93;6.40;;;;;;;11.23;100.00;97425.03;5055578;28;20443;-77
2022/04/28 07:36:59;;;;;;;6.47;5.60;;;;;;;12.02;100.00;97490.59;5040234;28;20550;-77
2022/04/28 07:39:44;;;;;;;7.30;6.53;;;;;;;12.44;100.00;97483.06;5055222;28;20829;-77
2022/04/28 07:42:19;;;;;;;8.00;6.77;;;;;;;12.14;100.00;97458.94;5020571;28;20426;-77
2022/04/28 07:44:47;;;;;;;6.37;5.77;;;;;;;12.41;100.00;97497.69;5036511;28;20476;-77
2022/04/28 07:47:14;;;;;;;7.17;6.03;;;;;;;12.44;100.00;97504.28;5036430;28;20514;-77
2022/04/28 07:50:10;;;;;;;7.20;6.47;;;;;;;12.37;100.00;97483.50;5030922;28;20472;-77
2022/04/28 07:52:38;;;;;;;7.10;6.23;;;;;;;13.29;100.00;97491.41;5036353;28;20515;-77
2022/04/28 07:55:07;;;;;;;7.87;7.27;;;;;;;13.38;97.80;97492.16;5035960;28;20451;-77
2022/04/28 07:57:35;;;;;;;7.23;6.53;;;;;;;13.63;96.33;97498.53;5036473;28;20447;-77
2022/04/28 08:00:07;;;;;;;7.83;7.13;;;;;;;13.42;95.34;97477.16;5043893;28;20486;-77
2022/04/28 08:02:41;;;;;;;6.90;6.00;;;;;;;13.50;96.57;97465.75;5055588;28;20436;-77
2022/04/28 08:05:11;;;;;;;7.87;7.07;;;;;;;13.56;91.92;97469.78;5036670;28;20446;-77
2022/04/28 08:07:40;;;;;;;6.70;6.10;;;;;;;13.41;92.35;97464.97;5036051;28;20466;-77
2022/04/28 08:10:07;;;;;;;7.23;6.57;;;;;;;13.63;91.61;97474.63;5036078;28;20465;-77
2022/04/28 08:12:35;;;;;;;10.63;7.47;;;;;;;13.55;89.75;97454.16;5036168;28;20833;-77
2022/04/28 08:15:57;;;;;;;6.27;5.77;;;;;;;14.38;87.70;97498.84;5043595;28;20471;-77
2022/04/28 08:18:36;;;;;;;7.60;6.40;;;;;;;13.73;81.90;97438.91;5046275;28;20462;-77
2022/04/28 08:21:08;;;;;;;8.90;6.63;;;;;;;14.30;79.79;97499.69;5062348;28;20451;-76
2022/04/28 08:23:36;;;;;;;6.00;5.57;;;;;;;14.49;78.11;97484.88;5043699;28;20429;-77
2022/04/28 08:26:04;;;;;;;7.13;6.43;;;;;;;14.38;75.23;97510.28;5035794;28;20543;-77
2022/04/28 08:28:31;;;;;;;7.57;6.87;;;;;;;14.25;73.25;97497.19;5035597;28;20527;-76
2022/04/28 08:30:57;;;;;;;7.50;6.47;;;;;;;14.55;72.03;97517.41;5018984;28;20460;-77
2022/04/28 08:33:24;;;;;;;7.40;6.17;;;;;;;14.89;65.35;97523.63;5035754;28;20434;-77
2022/04/28 08:35:52;;;;;;;6.97;6.30;;;;;;;15.03;63.92;97502.84;5022055;28;20929;-77
2022/04/28 08:38:19;;;;;;;7.30;6.60;;;;;;;14.93;57.92;97492.56;5034184;28;20440;-76
2022/04/28 08:40:48;;;;;;;7.87;7.07;;;;;;;15.12;59.97;97518.75;5007357;28;20693;-77
2022/04/28 08:43:33;;;;;;;7.20;5.50;;;;;;;14.98;61.29;97498.50;5034764;28;20445;-76
2022/04/28 08:48:53;;;;;;;6.77;6.17;;;;;;;14.78;59.50;97485.94;5038929;28;20469;-76
2022/04/28 08:51:27;;;;;;;9.23;6.83;;;;;;;14.35;59.89;97494.19;5034934;28;20440;-76
2022/04/28 08:54:00;;;;;;;10.60;6.93;;;;;;;14.34;62.96;97503.25;5034692;28;20478;-77
2022/04/28 08:56:26;;;;;;;6.53;5.90;;;;;;;14.33;59.89;97504.38;5034912;28;20441;-77
2022/04/28 08:58:58;;;;;;;7.23;5.93;;;;;;;14.02;59.84;97510.78;5043745;28;20500;-76
2022/04/28 09:01:27;;;;;;;6.90;6.07;;;;;;;13.93;60.61;97488.75;5034725;28;20444;-77
2022/04/28 09:04:10;;;;;;;6.93;6.33;;;;;;;13.71;58.80;97513.66;5037346;28;20422;-77
2022/04/28 09:06:52;;;;;;;6.80;6.13;;;;;;;13.25;61.34;97503.75;5052994;28;20429;-77
2022/04/28 09:09:38;;;;;;;5.97;5.47;;;;;;;12.92;61.02;97498.09;5052955;28;20486;-77
2022/04/28 09:12:24;;;;;;;6.97;6.37;;;;;;;12.46;62.64;97469.50;5053520;28;20436;-77
2022/04/28 09:15:12;;;;;;;5.63;5.03;;;;;;;13.01;63.07;97528.09;5053703;28;20433;-76
2022/04/28 09:17:59;;;;;;;6.73;6.13;;;;;;;12.80;65.05;97511.97;5035205;28;20436;-77
2022/04/28 09:20:25;;;;;;;9.53;6.83;;;;;;;13.05;67.74;97525.59;5035409;28;20533;-77
2022/04/28 09:23:01;;;;;;;6.53;5.83;;;;;;;13.06;66.06;97525.25;5037025;28;20440;-77
2022/04/28 09:25:38;;;;;;;7.90;6.50;;;;;;;13.08;64.07;97532.91;5035217;28;20468;-76
2022/04/28 09:28:08;;;;;;;6.43;5.80;;;;;;;13.12;62.60;97532.00;5034988;28;20468;-76
2022/04/28 09:30:43;;;;;;;6.53;6.03;;;;;;;13.32;64.77;97528.72;5034937;28;20469;-77
2022/04/28 09:33:33;;;;;;;6.70;6.00;;;;;;;13.67;63.76;97530.56;5044749;28;20448;-77
2022/04/28 09:36:20;;;;;;;7.50;6.80;;;;;;;13.43;60.79;97523.09;5037292;28;20979;-76
2022/04/28 09:38:53;;;;;;;6.93;6.10;;;;;;;13.44;61.11;97528.09;5052399;28;20977;-77
2022/04/28 09:44:11;;;;;;;7.83;6.10;;;;;;;13.27;61.43;97520.94;5034290;28;20448;-76
2022/04/28 09:46:45;;;;;;;6.80;6.20;;;;;;;13.61;59.72;97520.09;5034679;28;20947;-77
2022/04/28 09:49:17;;;;;;;6.60;6.00;;;;;;;13.49;59.26;97500.59;5034990;28;20474;-78
2022/04/28 09:52:12;;;;;;;7.47;5.53;;;;;;;14.18;66.06;97511.00;5041401;28;20430;-77
2022/04/28 09:55:03;;;;;;;6.47;5.77;;;;;;;13.94;61.99;97511.56;5034476;28;20878;-77
2022/04/28 09:57:43;;;;;;;7.20;6.50;;;;;;;13.85;60.60;97495.63;5033865;28;20445;-77
2022/04/28 10:00:10;;;;;;;6.93;6.23;;;;;;;13.83;60.30;97497.84;5033994;28;20450;-77
2022/04/28 10:02:54;;;;;;;5.87;5.37;;;;;;;14.22;62.00;97476.56;5051577;28;20901;-76
2022/04/28 10:05:25;;;;;;;8.60;6.10;;;;;;;14.86;60.92;97524.28;5034221;28;20547;-76
2022/04/28 10:08:14;;;;;;;8.67;6.20;;;;;;;14.71;56.38;97531.72;5034502;28;20482;-76
2022/04/28 10:10:42;;;;;;;6.50;5.90;;;;;;;14.63;58.48;97487.28;5033801;28;20457;-76
2022/04/28 10:13:11;;;;;;;5.90;5.40;;;;;;;15.25;56.74;97525.69;5033565;28;20849;-76
2022/04/28 10:16:06;;;;;;;9.00;6.90;;;;;;;15.74;55.20;97529.31;5029287;28;20532;-76
2022/04/28 10:18:37;;;;;;;5.90;5.30;;;;;;;15.65;53.52;97502.75;5013986;28;20438;-76
2022/04/28 10:21:06;;;;;;;7.53;6.00;;;;;;;15.65;52.04;97494.00;5032521;28;20519;-76
2022/04/28 10:32:54;;;;;;;5.60;5.20;;;;;;;16.43;53.25;97520.53;5033369;28;20952;-76
2022/04/28 10:35:53;;;;;;;6.20;5.70;;;;;;;16.35;48.75;97521.41;5033034;28;20528;-76
2022/04/28 10:38:38;;;;;;;6.53;5.93;;;;;;;16.31;49.61;97512.53;5034751;28;20964;-76
2022/04/28 10:41:06;;;;;;;5.77;5.13;;;;;;;15.72;50.32;97520.09;5036975;28;20556;-76
2022/04/28 10:43:32;;;;;;;5.30;4.90;;;;;;;15.13;48.06;97523.75;5037122;28;20494;-76
2022/04/28 10:46:24;;;;;;;4.87;4.43;;;;;;;15.17;50.37;97514.00;5036852;28;20496;-77
2022/04/28 10:48:59;;;;;;;7.23;6.53;;;;;;;14.47;56.84;97486.31;5042630;28;20540;-77
2022/04/28 10:51:30;;;;;;;6.47;4.83;;;;;;;14.37;56.88;97481.31;5036966;28;20477;-77
2022/04/28 10:54:07;;;;;;;6.33;5.70;;;;;;;14.37;58.14;97465.34;5036800;28;20817;-76
2022/04/28 10:56:40;;;;;;;13.80;6.10;;;;;;;14.31;56.92;97511.88;5036730;28;20527;-76
2022/04/28 10:59:34;;;;;;;5.90;5.20;;;;;;;14.33;57.29;97512.34;5036609;28;20436;-76
2022/04/28 11:02:11;;;;;;;7.00;6.23;;;;;;;14.20;56.52;97514.13;5054970;28;20980;-77
2022/04/28 11:04:40;;;;;;;6.83;6.30;;;;;;;13.99;57.01;97505.28;5037010;28;20439;-77
2022/04/28 11:07:11;;;;;;;7.33;5.43;;;;;;;14.27;58.38;97510.94;5036767;28;20539;-77
2022/04/28 11:09:50;;;;;;;6.93;6.33;;;;;;;14.18;58.23;97525.09;5036481;28;20572;-77
2022/04/28 11:12:18;;;;;;;6.83;5.40;;;;;;;13.85;56.52;97482.34;5020152;28;20433;-77
2022/04/28 11:15:00;;;;;;;5.80;4.80;;;;;;;14.25;57.19;97508.63;5036759;28;20523;-76
2022/04/28 11:17:28;;;;;;;6.40;5.80;;;;;;;13.97;56.50;97457.75;5055084;28;20425;-77
2022/04/28 11:19:55;;;;;;;7.23;6.60;;;;;;;14.21;56.73;97505.03;5036726;28;20568;-77
2022/04/28 11:22:22;;;;;;;7.57;6.63;;;;;;;14.44;56.88;97514.34;5020714;28;20860;-77
2022/04/28 11:24:49;;;;;;;5.87;5.27;;;;;;;14.46;55.69;97463.47;5025670;28;20450;-77
2022/04/28 11:27:36;;;;;;;6.23;5.23;;;;;;;14.61;56.55;97465.56;5040957;28;20436;-76
2022/04/28 11:30:14;;;;;;;8.63;5.27;;;;;;;15.53;55.16;97510.69;5036308;28;20953;-76
2022/04/28 11:32:57;;;;;;;6.50;5.90;;;;;;;15.79;54.09;97497.13;5054606;28;20421;-76
2022/04/28 11:35:35;;;;;;;6.70;6.10;;;;;;;16.00;52.74;97515.69;5060837;28;20428;-75
2022/04/28 11:38:03;;;;;;;9.27;5.30;;;;;;;16.63;50.02;97488.69;5078010;28;20421;-76
2022/04/28 11:40:35;;;;;;;7.63;6.93;;;;;;;16.11;50.09;97481.38;5045379;28;20453;-76
2022/04/28 11:43:03;;;;;;;5.93;5.43;;;;;;;16.16;50.37;97510.50;5036020;28;20442;-76
2022/04/28 11:45:32;;;;;;;6.03;5.17;;;;;;;16.95;48.19;97532.38;5041217;28;20837;-76
2022/04/28 11:48:00;;;;;;;7.50;4.83;;;;;;;16.83;49.51;97522.50;5035931;28;20444;-77
2022/04/28 11:50:34;;;;;;;9.17;5.57;;;;;;;16.33;48.12;97515.63;5019100;28;20477;-77
2022/04/28 11:53:07;;;;;;;5.50;5.00;;;;;;;16.10;50.05;97503.81;5035833;28;20432;-77
2022/04/28 11:55:38;;;;;;;6.00;5.50;;;;;;;16.37;50.81;97483.69;5035514;28;20475;-77
2022/04/28 11:58:06;;;;;;;6.07;5.50;;;;;;;16.42;48.58;97481.56;5053412;28;20425;-76
2022/04/28 12:00:37;;;;;;;6.77;5.30;;;;;;;17.18;48.65;97514.72;5035550;28;20448;-76
2022/04/28 12:03:04;;;;;;;6.47;5.87;;;;;;;16.75;48.58;97502.03;5035620;28;20476;-77
2022/04/28 12:05:33;;;;;;;5.50;5.07;;;;;;;17.23;48.48;97490.44;5052311;28;20510;-77
2022/04/28 12:08:00;;;;;;;6.20;5.70;;;;;;;17.85;47.54;97505.06;5053525;28;20471;-76
2022/04/28 12:16:02;;;;;;;4.37;4.07;;;;;;;17.72;44.48;97482.19;5052733;28;20476;-77
2022/04/28 12:21:23;;;;;;;4.87;4.43;;;;;;;16.87;44.65;97477.97;5054260;28;20434;-77
2022/04/28 12:23:58;;;;;;;6.60;5.00;;;;;;;17.15;45.26;97499.38;5036701;28;20484;-77
2022/04/28 12:26:25;;;;;;;5.47;4.97;;;;;;;16.29;47.41;97493.38;5054573;28;20413;-77
2022/04/28 12:28:54;;;;;;;4.37;3.97;;;;;;;16.14;47.26;97488.69;5036727;28;21038;-76
2022/04/28 12:31:31;;;;;;;5.60;4.50;;;;;;;15.89;46.96;97490.56;5037319;28;20445;-76
2022/04/28 12:34:22;;;;;;;5.00;4.50;;;;;;;15.19;47.67;97471.81;5035065;28;20932;-76
2022/04/28 12:36:55;;;;;;;4.80;4.30;;;;;;;15.36;47.62;97487.66;5040702;28;20507;-76
2022/04/28 12:39:28;;;;;;;5.43;4.87;;;;;;;15.35;48.37;97495.97;5024399;28;20455;-76